Pagrindinis puslapis
METAR-TAF:

METAR-TAF

Oro uostai :

Taškentas, Uzbekija

platuma: 41-16N, ilguma: 069-16E, Aukštis: 489 m

Dabartinis oras

Ataskaita buvo paskelbta 47 minutes, ne 22:00 UTC
Vėjas 4 kt iš Rytų/Šiaurės Rytų
Temperatūra 10°C
Drėgmė 100%
Slėgis 1018 hPa
Matomumas: 0100 m
rūkas

METAR: UTTT 052200Z 07004KT 0100 R08L/0400N FG VV000 10/10 Q1018 R08L/CLRD70 NOSIG RMK BASE060

Laikas: 03:47 (22:47 UTC)

Prognozė

Ataskaita buvo paskelbta 3 valandos ir 42 minutes, ne 19:05 UTC
Prognozė galioja nuo 05 metu 19 UTC su 06 metu 18 UTC
Vėjas 8 kt iš Šiaurės Rytų
Matomumas: 3000 m
rūkana
Laikinai
nuo 05 metu 19 UTC su 06 metu 03 UTC
Vėjas 2 kt nuo kintamojo kryptimis
Matomumas: 0200 m
Su prošvaistėmis ne aukštis 200 ft
rūkas
Tapsmas
nuo 06 metu 03 UTC su 06 metu 05 UTC
Matomumas: 7000 m

TAF: UTTT 051905Z 0519/0618 04008KT 3000 BR NSC TEMPO 0519/0603 VRB02KT 0200 FG BKN002 BECMG 0603/0605 7000 NSC

Orai ataskaitas ir orų prognozės (METAR, TAF).

turimą stotys yra geltonos ir raudonos taškus žemėlapyje.

Perkelti pele per norėdami pamatyti stoties vardą.

Tada spustelėkite, norėdami matyti oro stebėjimo ir prognozės.

Norėdami pakeisti žemėlapį: spustelėkite ant žalios mygtukų su juodo kryžiaus žemyn,; žalią mygtuką su brūkšneliu, jei norite nutolinti; arba žalių rodyklių gretimoms žemėlapius.


METAR-TAF: